Terminal Aerodrome Forecast
Issued by NWS

Home | Current Version | Previous Version | Graphics & Text | Print | Product List | Glossary On
Versions: 1 2 3 4 5 6 7 8 9 10 11 12 13 14 15 16 17 18
000
FTUS43 KMPX 041740
TAFRNH
TAF
KRNH 041740Z 0418/0518 17005KT 5SM HZ SCT050 SCT250
     FM042100 19005KT 6SM HZ SCT050 SCT250
     FM050200 17004KT P6SM SKC
     FM051400 18009KT P6SM FEW040 SCT250=

USA.gov is the U.S. government's official web portal to all federal, state and local government web resources and services.